Time;durP1;ratioP1;P1;durP2;ratioP2;P2;SDS_P1;SDS_P2;PMS_P1;PMS_P2;Temp;Humidity;BMP_temperature;BMP_pressure;BME280_temperature;BME280_humidity;BME280_pressure;Samples;Min_cycle;Max_cycle;Signal;HPM_P1;HPM_P2
2021/12/26 00:00:49;;;;;;;2.08;1.98;;;;;;;;;;5094242;28;20285;-67
2021/12/26 00:03:17;;;;;;;1.60;1.50;;;;;;;;;;5094764;28;20306;-68
2021/12/26 00:05:44;;;;;;;3.45;2.40;;;;;;;;;;5094153;28;20269;-67
2021/12/26 00:08:13;;;;;;;2.30;2.08;;;;;;;;;;5094571;28;20219;-67
2021/12/26 00:10:40;;;;;;;2.10;2.00;;;;;;;;;;5094538;28;20598;-67
2021/12/26 00:13:07;;;;;;;2.00;1.90;;;;;;;;;;5094534;28;20624;-67
2021/12/26 00:15:43;;;;;;;3.58;2.00;;;;;;;;;;5094770;28;20652;-67
2021/12/26 00:18:11;;;;;;;3.25;2.08;;;;;;;;;;5054212;28;20278;-67
2021/12/26 00:20:38;;;;;;;5.40;3.38;;;;;;;;;;5054117;28;20286;-67
2021/12/26 00:23:06;;;;;;;5.70;3.05;;;;;;;;;;5054293;28;20222;-67
2021/12/26 00:25:34;;;;;;;1.70;1.60;;;;;;;;;;5054080;28;20191;-67
2021/12/26 00:28:02;;;;;;;2.10;2.00;;;;;;;;;;5053945;28;20658;-66
2021/12/26 00:30:29;;;;;;;1.85;1.75;;;;;;;;;;5053728;28;20720;-68
2021/12/26 00:32:56;;;;;;;6.25;2.28;;;;;;;;;;5053490;28;20706;-67
2021/12/26 00:35:23;;;;;;;2.38;2.17;;;;;;;;;;5053565;28;20285;-67
2021/12/26 00:37:51;;;;;;;6.50;2.20;;;;;;;;;;5053154;28;20197;-67
2021/12/26 00:40:19;;;;;;;2.40;2.15;;;;;;;;;;5053309;28;20293;-67
2021/12/26 00:42:48;;;;;;;2.60;2.40;;;;;;;;;;5053166;28;20262;-67
2021/12/26 00:45:16;;;;;;;2.47;2.28;;;;;;;;;;5053957;28;20282;-67
2021/12/26 00:47:43;;;;;;;2.63;2.42;;;;;;;;;;5053743;28;20281;-67
2021/12/26 00:50:12;;;;;;;3.17;2.22;;;;;;;;;;5053647;28;20241;-67
2021/12/26 00:52:39;;;;;;;2.05;1.85;;;;;;;;;;5053697;28;20680;-67
2021/12/26 00:55:08;;;;;;;3.95;2.17;;;;;;;;;;5053303;28;20282;-67
2021/12/26 00:57:35;;;;;;;3.17;2.20;;;;;;;;;;5053233;28;20730;-68
2021/12/26 01:00:06;;;;;;;2.80;2.22;;;;;;;;;;5053218;28;20199;-68
2021/12/26 01:02:33;;;;;;;2.10;2.00;;;;;;;;;;5053344;28;20298;-67
2021/12/26 01:05:00;;;;;;;2.28;2.08;;;;;;;;;;5053404;28;20281;-68
2021/12/26 01:07:38;;;;;;;1.88;1.60;;;;;;;;;;5053398;28;20294;-67
2021/12/26 01:10:06;;;;;;;1.83;1.73;;;;;;;;;;5053057;28;20186;-68
2021/12/26 01:12:34;;;;;;;2.78;2.17;;;;;;;;;;5053798;28;20206;-67
2021/12/26 01:15:05;;;;;;;2.55;1.85;;;;;;;;;;5053042;28;20201;-67
2021/12/26 01:17:34;;;;;;;1.98;1.60;;;;;;;;;;5085388;28;20594;-67
2021/12/26 01:20:03;;;;;;;2.50;2.30;;;;;;;;;;5093203;28;20221;-68
2021/12/26 01:22:30;;;;;;;3.45;2.25;;;;;;;;;;5092840;28;20220;-67
2021/12/26 01:24:59;;;;;;;2.13;1.80;;;;;;;;;;5093339;28;20287;-66
2021/12/26 01:27:26;;;;;;;2.35;2.15;;;;;;;;;;5093497;28;20614;-66
2021/12/26 01:29:54;;;;;;;3.50;2.03;;;;;;;;;;5093211;28;20276;-66
2021/12/26 01:32:22;;;;;;;3.67;2.08;;;;;;;;;;5092909;28;20288;-67
2021/12/26 01:34:50;;;;;;;2.15;2.05;;;;;;;;;;5093104;28;20559;-66
2021/12/26 01:37:17;;;;;;;2.47;2.28;;;;;;;;;;5093169;28;20571;-67
2021/12/26 01:39:45;;;;;;;3.88;2.17;;;;;;;;;;5093106;28;20276;-68
2021/12/26 01:42:12;;;;;;;4.45;2.55;;;;;;;;;;5092653;28;20304;-67
2021/12/26 01:44:41;;;;;;;2.47;2.28;;;;;;;;;;5092935;28;20700;-67
2021/12/26 01:47:09;;;;;;;1.88;1.77;;;;;;;;;;5093070;28;20193;-67
2021/12/26 01:49:36;;;;;;;2.47;1.83;;;;;;;;;;5093894;28;20189;-66
2021/12/26 01:52:06;;;;;;;2.15;2.05;;;;;;;;;;5097714;28;20590;-66
2021/12/26 01:54:40;;;;;;;2.30;2.10;;;;;;;;;;5098015;28;20240;-67
2021/12/26 01:57:09;;;;;;;2.35;2.15;;;;;;;;;;5097545;28;20189;-67
2021/12/26 01:59:37;;;;;;;2.45;1.70;;;;;;;;;;5097094;28;20215;-66
2021/12/26 02:02:04;;;;;;;3.28;2.38;;;;;;;;;;5097182;28;20320;-67
2021/12/26 02:04:31;;;;;;;3.05;1.90;;;;;;;;;;5096760;28;20189;-68
2021/12/26 02:06:59;;;;;;;2.30;1.67;;;;;;;;;;5096619;28;20292;-67
2021/12/26 02:09:28;;;;;;;2.30;2.10;;;;;;;;;;5097195;28;20194;-66
2021/12/26 02:11:55;;;;;;;2.25;2.05;;;;;;;;;;5096583;28;20240;-66
2021/12/26 02:14:22;;;;;;;1.88;1.60;;;;;;;;;;5097207;28;20284;-67
2021/12/26 02:16:50;;;;;;;2.05;1.95;;;;;;;;;;5096667;28;20743;-68
2021/12/26 02:19:17;;;;;;;1.70;1.52;;;;;;;;;;5096462;28;20232;-67
2021/12/26 02:22:00;;;;;;;2.13;2.00;;;;;;;;;;5096708;28;20768;-67
2021/12/26 02:24:33;;;;;;;2.45;1.60;;;;;;;;;;5097036;28;20270;-67
2021/12/26 02:29:46;;;;;;;2.35;2.15;;;;;;;;;;5096362;28;20690;-67
2021/12/26 02:32:15;;;;;;;2.50;1.95;;;;;;;;;;5096151;28;20292;-67
2021/12/26 02:34:42;;;;;;;2.63;1.83;;;;;;;;;;5096334;28;20223;-67
2021/12/26 02:37:11;;;;;;;2.97;1.80;;;;;;;;;;5096044;28;20200;-67
2021/12/26 02:39:38;;;;;;;1.55;1.45;;;;;;;;;;5096044;28;20193;-67
2021/12/26 02:42:06;;;;;;;1.55;1.45;;;;;;;;;;5096225;28;20213;-67
2021/12/26 02:44:33;;;;;;;1.63;1.52;;;;;;;;;;5096292;28;20603;-67
2021/12/26 02:47:01;;;;;;;3.15;2.25;;;;;;;;;;5095883;28;20293;-67
2021/12/26 02:49:28;;;;;;;2.38;2.17;;;;;;;;;;5095815;28;20284;-67
2021/12/26 02:51:56;;;;;;;2.20;2.05;;;;;;;;;;5096098;28;20247;-66
2021/12/26 02:54:26;;;;;;;6.97;2.80;;;;;;;;;;5095632;28;20285;-66
2021/12/26 02:56:54;;;;;;;2.25;2.05;;;;;;;;;;5095670;28;20288;-66
2021/12/26 02:59:21;;;;;;;1.88;1.77;;;;;;;;;;5096032;28;20298;-67
2021/12/26 03:01:48;;;;;;;1.70;1.60;;;;;;;;;;5095858;28;20221;-67
2021/12/26 03:04:15;;;;;;;2.13;1.98;;;;;;;;;;5095584;28;20212;-67
2021/12/26 03:06:51;;;;;;;5.03;2.08;;;;;;;;;;5095849;28;20229;-67
2021/12/26 03:09:19;;;;;;;3.05;2.08;;;;;;;;;;5095498;28;20181;-68
2021/12/26 03:11:49;;;;;;;2.20;2.10;;;;;;;;;;5095393;28;20220;-67
2021/12/26 03:14:16;;;;;;;2.45;2.13;;;;;;;;;;5095917;28;20628;-67
2021/12/26 03:16:48;;;;;;;1.75;1.65;;;;;;;;;;5095521;28;20326;-67
2021/12/26 03:19:15;;;;;;;6.80;2.30;;;;;;;;;;5095918;28;20193;-67
2021/12/26 03:21:44;;;;;;;2.22;1.70;;;;;;;;;;5095045;28;20201;-67
2021/12/26 03:24:11;;;;;;;2.15;1.95;;;;;;;;;;5094978;28;20285;-66
2021/12/26 03:26:38;;;;;;;2.13;1.92;;;;;;;;;;5095970;28;20200;-68
2021/12/26 03:29:07;;;;;;;2.22;1.90;;;;;;;;;;5095565;28;20193;-68
2021/12/26 03:31:34;;;;;;;2.20;1.70;;;;;;;;;;5095262;28;20280;-67
2021/12/26 03:34:03;;;;;;;3.15;1.85;;;;;;;;;;5095294;28;20225;-67
2021/12/26 03:36:30;;;;;;;2.90;2.08;;;;;;;;;;5095700;28;20526;-67
2021/12/26 03:38:57;;;;;;;2.08;1.90;;;;;;;;;;5094853;28;20697;-67
2021/12/26 03:41:24;;;;;;;2.10;1.90;;;;;;;;;;5095106;28;20280;-67
2021/12/26 03:43:52;;;;;;;2.60;2.40;;;;;;;;;;5094982;28;20225;-67
2021/12/26 03:46:20;;;;;;;6.38;2.50;;;;;;;;;;5095093;28;20284;-67
2021/12/26 03:48:48;;;;;;;2.88;1.83;;;;;;;;;;5094738;28;20296;-67
2021/12/26 03:51:15;;;;;;;5.53;2.70;;;;;;;;;;5095554;28;20655;-67
2021/12/26 03:53:42;;;;;;;2.40;2.20;;;;;;;;;;5095703;28;20197;-67
2021/12/26 03:56:09;;;;;;;2.60;2.40;;;;;;;;;;5094650;28;20193;-67
2021/12/26 03:58:38;;;;;;;2.72;2.25;;;;;;;;;;5094917;28;20560;-67
2021/12/26 04:01:05;;;;;;;2.38;2.17;;;;;;;;;;5094859;28;20237;-70
2021/12/26 04:03:33;;;;;;;1.80;1.70;;;;;;;;;;5094686;28;20223;-68
2021/12/26 04:06:01;;;;;;;2.25;1.90;;;;;;;;;;5094367;28;20280;-68
2021/12/26 04:08:28;;;;;;;1.88;1.55;;;;;;;;;;5094376;28;20289;-68
2021/12/26 04:10:55;;;;;;;2.15;1.63;;;;;;;;;;5094655;28;20276;-67
2021/12/26 04:13:23;;;;;;;1.95;1.75;;;;;;;;;;5093620;28;20716;-67
2021/12/26 04:15:50;;;;;;;2.47;2.28;;;;;;;;;;5094119;28;20763;-68
2021/12/26 04:18:17;;;;;;;2.22;2.05;;;;;;;;;;5095210;28;20192;-67
2021/12/26 04:20:46;;;;;;;2.25;2.00;;;;;;;;;;5094142;28;20695;-67
2021/12/26 04:23:14;;;;;;;2.88;1.95;;;;;;;;;;5094010;28;20218;-67
2021/12/26 04:25:42;;;;;;;2.63;2.03;;;;;;;;;;5094043;28;20197;-67
2021/12/26 04:28:11;;;;;;;2.00;1.90;;;;;;;;;;5093957;28;20243;-67
2021/12/26 04:30:38;;;;;;;2.58;1.92;;;;;;;;;;5094000;28;20233;-68
2021/12/26 04:33:05;;;;;;;2.90;2.00;;;;;;;;;;5093987;28;20203;-67
2021/12/26 04:35:33;;;;;;;2.80;2.60;;;;;;;;;;5094076;28;20244;-67
2021/12/26 04:38:01;;;;;;;2.10;1.90;;;;;;;;;;5093629;28;20235;-68
2021/12/26 04:40:29;;;;;;;3.28;2.00;;;;;;;;;;5093826;28;20233;-67
2021/12/26 04:42:56;;;;;;;3.85;2.67;;;;;;;;;;5093988;28;20259;-67
2021/12/26 04:45:25;;;;;;;7.20;2.38;;;;;;;;;;5094547;28;20229;-67
2021/12/26 04:47:52;;;;;;;3.55;2.00;;;;;;;;;;5093984;28;20201;-68
2021/12/26 04:50:21;;;;;;;2.30;2.10;;;;;;;;;;5094082;28;20502;-68
2021/12/26 04:52:49;;;;;;;2.60;2.40;;;;;;;;;;5093882;28;20374;-67
2021/12/26 04:55:18;;;;;;;2.20;2.00;;;;;;;;;;5093690;28;20610;-67
2021/12/26 04:57:46;;;;;;;2.75;1.90;;;;;;;;;;5093835;28;20281;-67
2021/12/26 05:00:15;;;;;;;3.05;2.45;;;;;;;;;;5093432;28;20244;-72
2021/12/26 05:02:42;;;;;;;2.35;1.80;;;;;;;;;;5093231;28;20304;-67
2021/12/26 05:05:10;;;;;;;3.45;2.22;;;;;;;;;;5093781;28;20622;-67
2021/12/26 05:07:38;;;;;;;9.48;2.33;;;;;;;;;;5093646;28;20634;-67
2021/12/26 05:10:06;;;;;;;1.92;1.83;;;;;;;;;;5093514;28;20285;-67
2021/12/26 05:12:36;;;;;;;2.63;2.15;;;;;;;;;;5093773;28;20284;-68
2021/12/26 05:15:03;;;;;;;3.95;2.13;;;;;;;;;;5093530;28;20193;-67
2021/12/26 05:17:31;;;;;;;2.50;2.33;;;;;;;;;;5093246;28;20728;-67
2021/12/26 05:19:59;;;;;;;3.42;2.33;;;;;;;;;;5093435;28;20203;-67
2021/12/26 05:22:26;;;;;;;3.05;2.55;;;;;;;;;;5092943;28;20312;-67
2021/12/26 05:24:53;;;;;;;2.15;2.03;;;;;;;;;;5092506;28;20620;-68
2021/12/26 05:27:21;;;;;;;2.35;2.15;;;;;;;;;;5093021;28;20291;-67
2021/12/26 05:29:49;;;;;;;2.45;2.25;;;;;;;;;;5093363;28;20236;-68
2021/12/26 05:32:16;;;;;;;2.60;2.40;;;;;;;;;;5093487;28;20288;-68
2021/12/26 05:34:44;;;;;;;2.45;2.17;;;;;;;;;;5092885;28;20189;-67
2021/12/26 05:37:11;;;;;;;3.05;1.80;;;;;;;;;;5093241;28;20201;-68
2021/12/26 05:39:38;;;;;;;2.80;2.60;;;;;;;;;;5093235;28;20224;-67
2021/12/26 05:42:06;;;;;;;3.55;2.15;;;;;;;;;;5092870;28;20280;-68
2021/12/26 05:44:33;;;;;;;2.85;1.98;;;;;;;;;;5093041;28;20743;-68
2021/12/26 05:47:02;;;;;;;4.55;2.90;;;;;;;;;;5092806;28;20228;-68
2021/12/26 05:49:29;;;;;;;4.20;2.40;;;;;;;;;;5093306;28;20619;-67
2021/12/26 05:51:56;;;;;;;2.30;2.10;;;;;;;;;;5092952;28;20197;-67
2021/12/26 05:54:23;;;;;;;2.65;2.10;;;;;;;;;;5092572;28;20304;-68
2021/12/26 05:56:50;;;;;;;3.15;2.85;;;;;;;;;;5093041;28;20189;-67
2021/12/26 05:59:18;;;;;;;4.45;2.50;;;;;;;;;;5093213;28;20232;-67
2021/12/26 06:01:45;;;;;;;2.78;2.45;;;;;;;;;;5092637;28;20715;-67
2021/12/26 06:04:13;;;;;;;2.58;2.38;;;;;;;;;;5092661;28;20306;-67
2021/12/26 06:06:43;;;;;;;4.20;3.80;;;;;;;;;;5092546;28;20284;-67
2021/12/26 06:09:11;;;;;;;3.20;2.67;;;;;;;;;;5093134;28;20343;-68
2021/12/26 06:11:38;;;;;;;4.07;2.25;;;;;;;;;;5093366;28;20288;-68
2021/12/26 06:14:05;;;;;;;3.38;3.08;;;;;;;;;;5092971;28;20309;-68
2021/12/26 06:16:33;;;;;;;3.50;2.75;;;;;;;;;;5092604;28;20304;-68
2021/12/26 06:19:00;;;;;;;6.13;4.03;;;;;;;;;;5092860;28;20197;-68
2021/12/26 06:21:28;;;;;;;7.00;3.50;;;;;;;;;;5092891;28;20547;-67
2021/12/26 06:23:56;;;;;;;5.30;3.15;;;;;;;;;;5092815;28;20266;-67
2021/12/26 06:26:24;;;;;;;3.30;3.00;;;;;;;;;;5093132;28;20285;-69
2021/12/26 06:28:51;;;;;;;2.50;2.30;;;;;;;;;;5092646;28;20204;-68
2021/12/26 06:31:18;;;;;;;5.00;3.05;;;;;;;;;;5092402;28;20572;-67
2021/12/26 06:33:46;;;;;;;2.60;2.30;;;;;;;;;;5092669;28;20286;-67
2021/12/26 06:36:14;;;;;;;3.75;3.42;;;;;;;;;;5094102;28;20198;-68
2021/12/26 06:38:44;;;;;;;2.90;2.60;;;;;;;;;;5096714;28;20200;-68
2021/12/26 06:41:12;;;;;;;2.78;2.22;;;;;;;;;;5097061;28;20702;-68
2021/12/26 06:43:40;;;;;;;3.33;3.05;;;;;;;;;;5096809;28;20301;-67
2021/12/26 06:46:07;;;;;;;2.53;2.33;;;;;;;;;;5096605;28;20224;-67
2021/12/26 06:48:35;;;;;;;3.58;2.63;;;;;;;;;;5095995;28;20233;-66
2021/12/26 06:51:02;;;;;;;4.45;3.50;;;;;;;;;;5096367;28;20652;-67
2021/12/26 06:53:30;;;;;;;4.30;2.85;;;;;;;;;;5095527;28;20284;-67
2021/12/26 06:55:58;;;;;;;7.40;3.28;;;;;;;;;;5095933;28;20281;-67
2021/12/26 06:58:25;;;;;;;2.72;2.53;;;;;;;;;;5095682;28;20360;-67
2021/12/26 07:00:53;;;;;;;4.57;3.63;;;;;;;;;;5095599;28;20682;-67
2021/12/26 07:03:20;;;;;;;3.10;2.90;;;;;;;;;;5095668;28;20252;-68
2021/12/26 07:05:48;;;;;;;5.47;3.40;;;;;;;;;;5095768;28;20275;-67
2021/12/26 07:08:15;;;;;;;3.22;2.92;;;;;;;;;;5096368;28;20627;-67
2021/12/26 07:10:43;;;;;;;6.25;3.05;;;;;;;;;;5095541;28;20262;-66
2021/12/26 07:13:12;;;;;;;4.18;3.67;;;;;;;;;;5094923;28;20205;-67
2021/12/26 07:15:39;;;;;;;3.35;2.75;;;;;;;;;;5095220;28;20284;-65
2021/12/26 07:18:07;;;;;;;3.80;3.38;;;;;;;;;;5095866;28;20268;-66
2021/12/26 07:20:34;;;;;;;4.03;3.40;;;;;;;;;;5095918;28;20285;-67
2021/12/26 07:23:02;;;;;;;5.43;3.72;;;;;;;;;;5095223;28;20562;-69
2021/12/26 07:25:29;;;;;;;3.35;3.00;;;;;;;;;;5095178;28;20704;-67
2021/12/26 07:27:56;;;;;;;6.25;3.85;;;;;;;;;;5094936;28;20725;-67
2021/12/26 07:30:25;;;;;;;3.15;2.70;;;;;;;;;;5095806;28;20621;-67
2021/12/26 07:32:52;;;;;;;4.78;3.78;;;;;;;;;;5094977;28;20197;-67
2021/12/26 07:35:20;;;;;;;4.93;3.60;;;;;;;;;;5095033;28;20704;-67
2021/12/26 07:37:47;;;;;;;5.30;3.13;;;;;;;;;;5095079;28;20248;-67
2021/12/26 07:40:14;;;;;;;3.58;3.28;;;;;;;;;;5095156;28;20299;-67
2021/12/26 07:42:42;;;;;;;4.72;3.25;;;;;;;;;;5095223;28;20377;-67
2021/12/26 07:45:09;;;;;;;4.80;3.47;;;;;;;;;;5094659;28;20259;-67
2021/12/26 07:47:38;;;;;;;4.80;3.55;;;;;;;;;;5094112;28;20232;-67
2021/12/26 07:50:06;;;;;;;7.03;4.90;;;;;;;;;;5095011;28;20200;-67
2021/12/26 07:52:37;;;;;;;4.35;3.42;;;;;;;;;;5095087;28;20225;-67
2021/12/26 07:55:05;;;;;;;5.75;3.45;;;;;;;;;;5095106;28;20190;-67
2021/12/26 07:57:32;;;;;;;3.47;2.90;;;;;;;;;;5094977;28;20246;-67
2021/12/26 08:00:00;;;;;;;4.43;3.67;;;;;;;;;;5094492;28;20250;-67
2021/12/26 08:02:27;;;;;;;5.60;3.97;;;;;;;;;;5095197;28;20194;-67
2021/12/26 08:04:55;;;;;;;4.30;3.90;;;;;;;;;;5094730;28;20419;-67
2021/12/26 08:07:23;;;;;;;4.65;3.60;;;;;;;;;;5094312;28;20292;-67
2021/12/26 08:09:50;;;;;;;5.05;3.53;;;;;;;;;;5094599;28;20189;-68
2021/12/26 08:12:17;;;;;;;4.88;3.30;;;;;;;;;;5094590;28;20318;-70
2021/12/26 08:14:44;;;;;;;7.78;3.55;;;;;;;;;;5094488;28;20194;-67
2021/12/26 08:17:12;;;;;;;3.30;2.97;;;;;;;;;;5095087;28;20261;-67
2021/12/26 08:19:40;;;;;;;4.50;3.80;;;;;;;;;;5094341;28;20731;-66
2021/12/26 08:22:08;;;;;;;5.15;3.63;;;;;;;;;;5094291;28;20225;-66
2021/12/26 08:24:35;;;;;;;8.20;4.25;;;;;;;;;;5095063;28;20217;-66
2021/12/26 08:27:03;;;;;;;5.20;4.25;;;;;;;;;;5093906;28;20193;-65
2021/12/26 08:29:30;;;;;;;4.20;3.80;;;;;;;;;;5094332;28;20280;-65
2021/12/26 08:31:59;;;;;;;10.60;5.15;;;;;;;;;;5094133;28;20285;-66
2021/12/26 08:34:27;;;;;;;8.02;3.97;;;;;;;;;;5093909;28;20197;-66
2021/12/26 08:36:59;;;;;;;5.05;4.43;;;;;;;;;;5094304;28;20197;-66
2021/12/26 08:39:28;;;;;;;5.97;4.10;;;;;;;;;;5094127;28;20291;-65
2021/12/26 08:41:56;;;;;;;4.25;3.78;;;;;;;;;;5093856;28;20288;-66
2021/12/26 08:44:23;;;;;;;6.22;3.55;;;;;;;;;;5093633;28;20763;-66
2021/12/26 08:46:51;;;;;;;4.28;3.80;;;;;;;;;;5094127;28;20623;-65
2021/12/26 08:49:18;;;;;;;5.15;4.30;;;;;;;;;;5093626;28;20287;-66
2021/12/26 08:51:46;;;;;;;5.70;3.95;;;;;;;;;;5093418;28;20228;-67
2021/12/26 08:54:14;;;;;;;4.55;4.15;;;;;;;;;;5093351;28;20285;-66
2021/12/26 08:56:42;;;;;;;4.60;4.03;;;;;;;;;;5093695;28;20231;-66
2021/12/26 08:59:10;;;;;;;5.00;3.92;;;;;;;;;;5093310;28;20243;-66
2021/12/26 09:01:38;;;;;;;5.78;4.32;;;;;;;;;;5093630;28;20194;-66
2021/12/26 09:04:06;;;;;;;6.85;4.55;;;;;;;;;;5093481;28;20223;-66
2021/12/26 09:06:33;;;;;;;5.88;4.35;;;;;;;;;;5093595;28;20232;-66
2021/12/26 09:09:00;;;;;;;5.95;4.53;;;;;;;;;;5093186;28;20376;-66
2021/12/26 09:11:27;;;;;;;6.05;5.05;;;;;;;;;;5093504;28;20200;-66
2021/12/26 09:13:56;;;;;;;5.57;4.18;;;;;;;;;;5093750;28;20231;-66
2021/12/26 09:16:23;;;;;;;8.95;4.57;;;;;;;;;;5093205;28;20308;-66
2021/12/26 09:18:51;;;;;;;7.63;4.60;;;;;;;;;;5093171;28;20200;-66
2021/12/26 09:21:18;;;;;;;5.63;5.10;;;;;;;;;;5093323;28;20205;-67
2021/12/26 09:23:45;;;;;;;5.72;4.80;;;;;;;;;;5093511;28;20287;-66
2021/12/26 09:26:13;;;;;;;6.13;5.05;;;;;;;;;;5093170;28;20193;-66
2021/12/26 09:28:40;;;;;;;6.78;4.93;;;;;;;;;;5093280;28;20193;-65
2021/12/26 09:31:08;;;;;;;5.97;5.20;;;;;;;;;;5093324;28;20280;-66
2021/12/26 09:33:36;;;;;;;6.65;5.20;;;;;;;;;;5093269;28;20193;-66
2021/12/26 09:36:03;;;;;;;11.20;5.90;;;;;;;;;;5093279;28;20605;-66
2021/12/26 09:38:30;;;;;;;8.00;5.68;;;;;;;;;;5093005;28;20628;-66
2021/12/26 09:40:59;;;;;;;7.35;5.55;;;;;;;;;;5092902;28;20289;-66
2021/12/26 09:43:26;;;;;;;5.65;5.15;;;;;;;;;;5093340;28;20189;-65
2021/12/26 09:45:54;;;;;;;7.25;5.40;;;;;;;;;;5091419;28;20249;-67
2021/12/26 09:48:23;;;;;;;9.02;5.50;;;;;;;;;;5093310;28;20306;-66
2021/12/26 09:50:50;;;;;;;11.88;6.00;;;;;;;;;;5094280;28;20288;-66
2021/12/26 09:53:17;;;;;;;7.78;5.70;;;;;;;;;;5093232;28;20224;-66
2021/12/26 09:55:44;;;;;;;8.73;5.80;;;;;;;;;;5092665;28;20660;-66
2021/12/26 09:58:12;;;;;;;6.95;5.43;;;;;;;;;;5093245;28;20219;-66
2021/12/26 10:00:41;;;;;;;10.50;7.35;;;;;;;;;;5094335;28;20645;-67
2021/12/26 10:03:09;;;;;;;6.13;5.00;;;;;;;;;;5093208;28;20235;-67
2021/12/26 10:05:51;;;;;;;8.38;5.65;;;;;;;;;;5093138;28;20657;-66
2021/12/26 10:08:19;;;;;;;9.32;6.15;;;;;;;;;;5093079;28;20194;-66
2021/12/26 10:11:01;;;;;;;6.50;5.90;;;;;;;;;;5093685;28;20667;-66
2021/12/26 10:13:38;;;;;;;7.88;6.05;;;;;;;;;;5096739;28;20229;-66
2021/12/26 10:16:05;;;;;;;8.57;6.10;;;;;;;;;;5096778;28;20233;-66
2021/12/26 10:18:32;;;;;;;7.38;5.53;;;;;;;;;;5096826;28;20607;-67
2021/12/26 10:21:00;;;;;;;6.60;5.90;;;;;;;;;;5096502;28;20280;-66
2021/12/26 10:23:29;;;;;;;8.40;6.30;;;;;;;;;;5096475;28;20305;-66
2021/12/26 10:25:57;;;;;;;7.47;5.95;;;;;;;;;;5097089;28;20225;-66
2021/12/26 10:28:24;;;;;;;6.82;5.32;;;;;;;;;;5097708;28;20232;-66
2021/12/26 10:30:52;;;;;;;7.93;6.45;;;;;;;;;;5096686;28;20628;-66
2021/12/26 10:33:19;;;;;;;7.95;5.53;;;;;;;;;;5096537;28;20194;-66
2021/12/26 10:35:46;;;;;;;7.20;5.90;;;;;;;;;;5096127;28;20204;-66
2021/12/26 10:38:16;;;;;;;11.98;6.55;;;;;;;;;;5096080;28;20683;-66
2021/12/26 10:40:51;;;;;;;8.18;7.35;;;;;;;;;;5096440;28;20221;-66
2021/12/26 10:43:18;;;;;;;13.88;7.05;;;;;;;;;;5096650;28;20186;-66
2021/12/26 10:45:45;;;;;;;8.40;6.53;;;;;;;;;;5096547;28;20643;-67
2021/12/26 10:48:13;;;;;;;11.70;7.35;;;;;;;;;;5095903;28;20725;-66
2021/12/26 10:50:41;;;;;;;10.20;6.30;;;;;;;;;;5096181;28;20284;-68
2021/12/26 10:53:11;;;;;;;12.77;8.20;;;;;;;;;;5096366;28;20281;-66
2021/12/26 10:55:39;;;;;;;8.85;6.60;;;;;;;;;;5098442;28;20591;-67
2021/12/26 10:58:08;;;;;;;9.10;7.00;;;;;;;;;;5095841;28;20285;-66
2021/12/26 11:00:37;;;;;;;8.13;6.88;;;;;;;;;;5096145;28;20240;-67
2021/12/26 11:03:05;;;;;;;9.05;6.10;;;;;;;;;;5095722;28;20197;-67
2021/12/26 11:05:35;;;;;;;6.93;6.22;;;;;;;;;;5095988;28;20645;-66
2021/12/26 11:08:04;;;;;;;8.63;7.15;;;;;;;;;;5095646;28;20194;-66
2021/12/26 11:10:33;;;;;;;12.82;7.60;;;;;;;;;;5095688;28;20221;-67
2021/12/26 11:13:01;;;;;;;9.07;6.60;;;;;;;;;;5095546;28;20204;-66
2021/12/26 11:15:31;;;;;;;9.18;6.82;;;;;;;;;;5095984;28;20296;-67
2021/12/26 11:17:59;;;;;;;9.13;6.65;;;;;;;;;;5096298;28;20268;-67
2021/12/26 11:20:32;;;;;;;8.60;6.65;;;;;;;;;;5096285;28;20224;-66
2021/12/26 11:23:00;;;;;;;7.97;6.18;;;;;;;;;;5094339;28;20268;-66
2021/12/26 11:25:27;;;;;;;12.77;7.50;;;;;;;;;;5095752;28;20256;-67
2021/12/26 11:27:55;;;;;;;9.98;6.85;;;;;;;;;;5095210;28;20660;-66
2021/12/26 11:30:22;;;;;;;9.98;7.95;;;;;;;;;;5095630;28;20240;-66
2021/12/26 11:32:51;;;;;;;9.63;6.65;;;;;;;;;;5095115;28;20197;-67
2021/12/26 11:35:18;;;;;;;7.78;6.53;;;;;;;;;;5095310;28;20252;-67
2021/12/26 11:37:45;;;;;;;8.05;6.60;;;;;;;;;;5095281;28;20201;-66
2021/12/26 11:40:15;;;;;;;8.60;6.97;;;;;;;;;;5095007;28;20231;-66
2021/12/26 11:43:01;;;;;;;9.55;7.68;;;;;;;;;;5095242;28;20194;-66
2021/12/26 11:45:31;;;;;;;9.10;7.80;;;;;;;;;;5095675;28;20271;-66
2021/12/26 11:48:21;;;;;;;10.45;7.80;;;;;;;;;;5095470;28;20235;-65
2021/12/26 11:50:52;;;;;;;10.10;6.85;;;;;;;;;;5095173;28;20547;-66
2021/12/26 11:53:27;;;;;;;10.23;6.97;;;;;;;;;;5094822;28;20185;-65
2021/12/26 11:56:00;;;;;;;10.73;7.75;;;;;;;;;;5095511;28;20600;-65
2021/12/26 11:58:37;;;;;;;10.35;7.20;;;;;;;;;;5094651;28;20228;-65
2021/12/26 12:01:04;;;;;;;11.65;8.00;;;;;;;;;;5094669;28;20227;-66
2021/12/26 12:03:33;;;;;;;8.07;7.13;;;;;;;;;;5094945;28;20296;-66
2021/12/26 12:06:01;;;;;;;9.00;7.93;;;;;;;;;;5094347;28;20213;-65
2021/12/26 12:08:29;;;;;;;9.60;8.13;;;;;;;;;;5094912;28;20554;-65
2021/12/26 12:10:58;;;;;;;10.45;7.40;;;;;;;;;;5094365;28;20298;-67
2021/12/26 12:13:40;;;;;;;11.48;7.53;;;;;;;;;;5094614;28;20561;-67
2021/12/26 12:16:08;;;;;;;10.60;7.93;;;;;;;;;;5077626;28;20320;-66
2021/12/26 12:18:37;;;;;;;11.70;7.55;;;;;;;;;;5094621;28;20185;-66
2021/12/26 12:21:12;;;;;;;10.65;7.95;;;;;;;;;;5094730;28;20296;-66
2021/12/26 12:23:57;;;;;;;11.13;9.38;;;;;;;;;;5094408;28;20645;-66
2021/12/26 12:26:38;;;;;;;13.98;7.80;;;;;;;;;;5094352;28;20214;-67
2021/12/26 12:29:05;;;;;;;10.25;8.23;;;;;;;;;;5094058;28;20282;-66
2021/12/26 12:31:32;;;;;;;12.65;9.07;;;;;;;;;;5094349;28;20221;-66
2021/12/26 12:34:06;;;;;;;12.57;8.43;;;;;;;;;;5094231;28;20232;-66
2021/12/26 12:36:34;;;;;;;12.38;8.65;;;;;;;;;;5093927;28;20288;-66
2021/12/26 12:39:13;;;;;;;10.18;8.07;;;;;;;;;;5094096;28;20284;-66
2021/12/26 12:41:41;;;;;;;10.27;7.55;;;;;;;;;;5094020;28;20221;-66
2021/12/26 12:44:24;;;;;;;11.55;8.75;;;;;;;;;;5093757;28;20671;-66
2021/12/26 12:46:55;;;;;;;11.95;8.50;;;;;;;;;;5094258;28;20241;-66
2021/12/26 12:49:41;;;;;;;10.50;7.25;;;;;;;;;;5094760;28;20195;-66
2021/12/26 12:52:08;;;;;;;10.18;7.90;;;;;;;;;;5094202;28;20182;-67
2021/12/26 12:54:36;;;;;;;10.30;8.57;;;;;;;;;;5093603;28;20673;-66
2021/12/26 12:57:04;;;;;;;13.40;8.70;;;;;;;;;;5093903;28;20280;-67
2021/12/26 12:59:35;;;;;;;8.63;7.10;;;;;;;;;;5094264;28;20194;-67
2021/12/26 13:02:04;;;;;;;12.35;7.85;;;;;;;;;;5093935;28;20605;-66
2021/12/26 13:04:46;;;;;;;11.20;9.20;;;;;;;;;;5093696;28;20285;-67
2021/12/26 13:07:17;;;;;;;9.82;7.70;;;;;;;;;;5093803;28;20214;-67
2021/12/26 13:09:48;;;;;;;12.00;8.85;;;;;;;;;;5093724;28;20585;-69
2021/12/26 13:12:16;;;;;;;14.90;9.07;;;;;;;;;;5093634;28;20197;-69
2021/12/26 13:14:44;;;;;;;11.15;8.05;;;;;;;;;;5092884;28;20202;-69
2021/12/26 13:17:13;;;;;;;11.35;8.50;;;;;;;;;;5094070;28;20753;-69
2021/12/26 13:19:42;;;;;;;10.98;8.65;;;;;;;;;;5093559;28;20713;-69
2021/12/26 13:22:09;;;;;;;13.18;8.82;;;;;;;;;;5093478;28;20197;-69
2021/12/26 13:24:37;;;;;;;13.93;9.73;;;;;;;;;;5094582;28;20235;-69
2021/12/26 13:27:05;;;;;;;12.05;8.65;;;;;;;;;;5093615;28;20300;-69
2021/12/26 13:29:32;;;;;;;11.32;8.63;;;;;;;;;;5093074;28;20190;-69
2021/12/26 13:32:00;;;;;;;19.65;9.32;;;;;;;;;;5093009;28;20225;-70
2021/12/26 13:34:27;;;;;;;14.90;9.32;;;;;;;;;;5093679;28;20246;-69
2021/12/26 13:36:56;;;;;;;14.60;10.00;;;;;;;;;;5093245;28;20286;-69
2021/12/26 13:39:24;;;;;;;12.93;8.50;;;;;;;;;;5093756;28;20258;-69
2021/12/26 13:41:52;;;;;;;9.73;8.68;;;;;;;;;;5093195;28;20208;-68
2021/12/26 13:44:20;;;;;;;11.48;9.05;;;;;;;;;;5093334;28;20216;-68
2021/12/26 13:46:48;;;;;;;13.68;8.73;;;;;;;;;;5092240;28;20782;-69
2021/12/26 13:49:15;;;;;;;11.50;8.10;;;;;;;;;;5093303;28;20194;-69
2021/12/26 13:51:45;;;;;;;11.90;8.43;;;;;;;;;;5092883;28;20194;-68
2021/12/26 13:54:26;;;;;;;13.65;8.52;;;;;;;;;;5093211;28;20721;-68
2021/12/26 13:56:54;;;;;;;12.25;8.52;;;;;;;;;;5092915;28;20217;-69
2021/12/26 13:59:28;;;;;;;11.05;8.15;;;;;;;;;;5092784;28;20657;-69
2021/12/26 14:01:55;;;;;;;13.60;8.95;;;;;;;;;;5093057;28;20280;-68
2021/12/26 14:04:23;;;;;;;12.15;8.75;;;;;;;;;;5092834;28;20356;-69
2021/12/26 14:06:51;;;;;;;12.73;9.63;;;;;;;;;;5092951;28;20267;-69
2021/12/26 14:09:18;;;;;;;13.70;9.55;;;;;;;;;;5093141;28;20272;-69
2021/12/26 14:11:47;;;;;;;13.43;9.38;;;;;;;;;;5092959;28;20582;-69
2021/12/26 14:14:21;;;;;;;11.60;8.73;;;;;;;;;;5092497;28;20209;-68
2021/12/26 14:16:48;;;;;;;10.25;8.40;;;;;;;;;;5092758;28;20271;-68
2021/12/26 14:19:16;;;;;;;15.35;9.85;;;;;;;;;;5092862;28;20200;-68
2021/12/26 14:21:44;;;;;;;17.00;9.15;;;;;;;;;;5092768;28;20204;-69
2021/12/26 14:24:12;;;;;;;15.57;10.43;;;;;;;;;;5092550;28;20671;-69
2021/12/26 14:26:40;;;;;;;13.70;8.85;;;;;;;;;;5092659;28;20322;-68
2021/12/26 14:29:10;;;;;;;10.10;8.32;;;;;;;;;;5092915;28;20568;-68
2021/12/26 14:31:39;;;;;;;11.52;9.05;;;;;;;;;;5092273;28;20627;-69
2021/12/26 14:34:07;;;;;;;16.40;10.02;;;;;;;;;;5092762;28;20310;-69
2021/12/26 14:36:43;;;;;;;13.68;9.23;;;;;;;;;;5092680;28;20205;-69
2021/12/26 14:39:10;;;;;;;13.65;8.88;;;;;;;;;;5092573;28;20220;-69
2021/12/26 14:41:38;;;;;;;13.32;9.93;;;;;;;;;;5093015;28;20234;-69
2021/12/26 14:44:18;;;;;;;14.15;9.52;;;;;;;;;;5092079;28;20196;-69
2021/12/26 14:46:45;;;;;;;11.27;8.57;;;;;;;;;;5093253;28;20210;-69
2021/12/26 14:49:14;;;;;;;14.65;10.23;;;;;;;;;;5092429;28;20616;-69
2021/12/26 14:51:41;;;;;;;12.27;8.55;;;;;;;;;;5092224;28;20288;-69